Milwaukee, Wisconsin
Traffic Map
Current Weather Conditions
Milwaukee, Wisconsin
Overcast
Overcast
39°
Feels Like: 35°
Wind Chill: 35° Ceiling: 3700
Heat Index: 39° Visibility: 10mi
Dew Point: 36° Wind: 6mph
Humidity: 89% Direction: 10° (N)
Pressure: 30in Gusts: 0mph
Raw Report DataKMKE 280452Z 01005KT 10SM FEW005 OVC037 04/02 A3000 RMK AO2 SLP165 T00390022
Traffic Incident Summary
Active as of:
Severity:
Category:
InformationThere was an issue retrieving the traffic information for this location. Please try a different location or try again shortly.
Advertisements
Track Severe Weather on mobile